sensor_id;sensor_type;location;lat;lon;timestamp;temperature;humidity
52024;DHT22;38038;45.922;13.604;2023-11-22T00:00:20;10.10;99.90
52024;DHT22;38038;45.922;13.604;2023-11-22T00:02:46;10.20;99.90
52024;DHT22;38038;45.922;13.604;2023-11-22T00:05:13;10.30;99.90
52024;DHT22;38038;45.922;13.604;2023-11-22T00:07:38;10.30;99.90
52024;DHT22;38038;45.922;13.604;2023-11-22T00:10:05;10.30;99.90
52024;DHT22;38038;45.922;13.604;2023-11-22T00:12:31;10.60;99.90
52024;DHT22;38038;45.922;13.604;2023-11-22T00:15:04;10.50;99.90
52024;DHT22;38038;45.922;13.604;2023-11-22T00:17:35;10.50;99.90
52024;DHT22;38038;45.922;13.604;2023-11-22T00:20:02;10.40;99.90
52024;DHT22;38038;45.922;13.604;2023-11-22T00:22:32;10.30;99.90
52024;DHT22;38038;45.922;13.604;2023-11-22T00:24:59;10.30;99.90
52024;DHT22;38038;45.922;13.604;2023-11-22T00:27:27;10.30;99.90
52024;DHT22;38038;45.922;13.604;2023-11-22T00:29:53;10.30;99.90
52024;DHT22;38038;45.922;13.604;2023-11-22T00:32:18;10.20;99.90
52024;DHT22;38038;45.922;13.604;2023-11-22T00:34:44;10.00;99.90
52024;DHT22;38038;45.922;13.604;2023-11-22T00:37:10;9.90;99.90
52024;DHT22;38038;45.922;13.604;2023-11-22T00:39:36;9.80;99.90
52024;DHT22;38038;45.922;13.604;2023-11-22T00:42:03;9.50;99.90
52024;DHT22;38038;45.922;13.604;2023-11-22T00:44:29;9.50;99.90
52024;DHT22;38038;45.922;13.604;2023-11-22T00:46:55;9.80;99.90
52024;DHT22;38038;45.922;13.604;2023-11-22T00:49:23;9.80;99.90
52024;DHT22;38038;45.922;13.604;2023-11-22T00:51:49;9.90;99.90
52024;DHT22;38038;45.922;13.604;2023-11-22T00:54:16;10.30;99.90
52024;DHT22;38038;45.922;13.604;2023-11-22T00:56:42;10.90;99.90
52024;DHT22;38038;45.922;13.604;2023-11-22T00:59:08;10.70;99.90
52024;DHT22;38038;45.922;13.604;2023-11-22T01:01:34;10.40;99.90
52024;DHT22;38038;45.922;13.604;2023-11-22T01:04:00;10.30;99.90
52024;DHT22;38038;45.922;13.604;2023-11-22T01:06:26;10.10;99.90
52024;DHT22;38038;45.922;13.604;2023-11-22T01:08:52;10.10;99.90
52024;DHT22;38038;45.922;13.604;2023-11-22T01:11:18;10.10;99.90
52024;DHT22;38038;45.922;13.604;2023-11-22T01:13:43;10.20;99.90
52024;DHT22;38038;45.922;13.604;2023-11-22T01:16:10;10.10;99.90
52024;DHT22;38038;45.922;13.604;2023-11-22T01:18:36;10.10;99.90
52024;DHT22;38038;45.922;13.604;2023-11-22T01:21:03;9.90;99.90
52024;DHT22;38038;45.922;13.604;2023-11-22T01:23:31;9.80;99.90
52024;DHT22;38038;45.922;13.604;2023-11-22T01:25:58;10.00;99.90
52024;DHT22;38038;45.922;13.604;2023-11-22T01:28:25;10.10;99.90
52024;DHT22;38038;45.922;13.604;2023-11-22T01:30:53;10.10;99.90
52024;DHT22;38038;45.922;13.604;2023-11-22T01:33:18;10.10;99.90
52024;DHT22;38038;45.922;13.604;2023-11-22T01:35:44;10.30;99.90
52024;DHT22;38038;45.922;13.604;2023-11-22T01:38:10;10.30;99.90
52024;DHT22;38038;45.922;13.604;2023-11-22T01:40:45;10.60;99.90
52024;DHT22;38038;45.922;13.604;2023-11-22T01:43:18;11.20;99.30
52024;DHT22;38038;45.922;13.604;2023-11-22T01:45:44;11.50;98.50
52024;DHT22;38038;45.922;13.604;2023-11-22T01:48:11;11.50;98.80
52024;DHT22;38038;45.922;13.604;2023-11-22T01:50:40;11.50;98.20
52024;DHT22;38038;45.922;13.604;2023-11-22T01:53:09;11.50;99.20
52024;DHT22;38038;45.922;13.604;2023-11-22T01:55:36;11.50;97.70
52024;DHT22;38038;45.922;13.604;2023-11-22T01:58:01;11.70;98.10
52024;DHT22;38038;45.922;13.604;2023-11-22T02:00:31;11.70;97.50
52024;DHT22;38038;45.922;13.604;2023-11-22T02:02:58;11.70;98.20
52024;DHT22;38038;45.922;13.604;2023-11-22T02:05:25;11.50;98.60
52024;DHT22;38038;45.922;13.604;2023-11-22T02:07:51;11.30;99.70
52024;DHT22;38038;45.922;13.604;2023-11-22T02:10:17;12.00;96.80
52024;DHT22;38038;45.922;13.604;2023-11-22T02:12:43;11.90;96.70
52024;DHT22;38038;45.922;13.604;2023-11-22T02:15:09;11.90;96.60
52024;DHT22;38038;45.922;13.604;2023-11-22T02:17:35;11.90;96.80
52024;DHT22;38038;45.922;13.604;2023-11-22T02:20:01;12.00;96.20
52024;DHT22;38038;45.922;13.604;2023-11-22T02:22:31;11.70;96.90
52024;DHT22;38038;45.922;13.604;2023-11-22T02:24:57;11.90;95.70
52024;DHT22;38038;45.922;13.604;2023-11-22T02:27:23;12.10;95.40
52024;DHT22;38038;45.922;13.604;2023-11-22T02:29:49;11.90;95.90
52024;DHT22;38038;45.922;13.604;2023-11-22T02:32:15;12.10;94.90
52024;DHT22;38038;45.922;13.604;2023-11-22T02:34:41;12.10;95.40
52024;DHT22;38038;45.922;13.604;2023-11-22T02:37:07;11.90;94.70
52024;DHT22;38038;45.922;13.604;2023-11-22T02:39:45;12.30;94.40
52024;DHT22;38038;45.922;13.604;2023-11-22T02:42:13;12.20;94.80
52024;DHT22;38038;45.922;13.604;2023-11-22T02:44:38;12.00;95.60
52024;DHT22;38038;45.922;13.604;2023-11-22T02:47:05;12.30;94.20
52024;DHT22;38038;45.922;13.604;2023-11-22T02:49:31;12.50;94.30
52024;DHT22;38038;45.922;13.604;2023-11-22T02:51:56;12.30;94.90
52024;DHT22;38038;45.922;13.604;2023-11-22T02:54:22;12.10;95.40
52024;DHT22;38038;45.922;13.604;2023-11-22T02:56:48;12.10;94.50
52024;DHT22;38038;45.922;13.604;2023-11-22T02:59:13;12.10;94.50
52024;DHT22;38038;45.922;13.604;2023-11-22T03:01:39;12.20;94.20
52024;DHT22;38038;45.922;13.604;2023-11-22T03:04:08;12.30;94.90
52024;DHT22;38038;45.922;13.604;2023-11-22T03:06:34;12.30;93.40
52024;DHT22;38038;45.922;13.604;2023-11-22T03:09:01;12.30;93.80
52024;DHT22;38038;45.922;13.604;2023-11-22T03:11:27;12.20;94.00
52024;DHT22;38038;45.922;13.604;2023-11-22T03:13:53;12.10;94.60
52024;DHT22;38038;45.922;13.604;2023-11-22T03:16:19;12.20;93.60
52024;DHT22;38038;45.922;13.604;2023-11-22T03:18:44;12.40;92.90
52024;DHT22;38038;45.922;13.604;2023-11-22T03:21:10;12.30;93.90
52024;DHT22;38038;45.922;13.604;2023-11-22T03:23:36;12.20;94.90
52024;DHT22;38038;45.922;13.604;2023-11-22T03:26:01;11.90;95.50
52024;DHT22;38038;45.922;13.604;2023-11-22T03:28:29;11.70;95.50
52024;DHT22;38038;45.922;13.604;2023-11-22T03:30:56;11.70;96.30
52024;DHT22;38038;45.922;13.604;2023-11-22T03:33:22;11.50;95.70
52024;DHT22;38038;45.922;13.604;2023-11-22T03:35:48;11.50;97.00
52024;DHT22;38038;45.922;13.604;2023-11-22T03:38:13;11.30;97.50
52024;DHT22;38038;45.922;13.604;2023-11-22T03:40:39;11.20;96.70
52024;DHT22;38038;45.922;13.604;2023-11-22T03:43:05;11.20;96.80
52024;DHT22;38038;45.922;13.604;2023-11-22T03:45:33;11.30;96.00
52024;DHT22;38038;45.922;13.604;2023-11-22T03:47:59;11.20;96.80
52024;DHT22;38038;45.922;13.604;2023-11-22T03:50:25;11.70;94.20
52024;DHT22;38038;45.922;13.604;2023-11-22T03:52:51;11.80;94.70
52024;DHT22;38038;45.922;13.604;2023-11-22T03:55:17;11.70;94.30
52024;DHT22;38038;45.922;13.604;2023-11-22T03:57:42;11.80;94.80
52024;DHT22;38038;45.922;13.604;2023-11-22T04:00:09;11.70;94.80
52024;DHT22;38038;45.922;13.604;2023-11-22T04:02:35;11.60;94.30
52024;DHT22;38038;45.922;13.604;2023-11-22T04:05:03;12.20;93.00
52024;DHT22;38038;45.922;13.604;2023-11-22T04:07:28;12.20;93.90
52024;DHT22;38038;45.922;13.604;2023-11-22T04:09:54;12.00;94.80
52024;DHT22;38038;45.922;13.604;2023-11-22T04:12:21;11.60;96.20
52024;DHT22;38038;45.922;13.604;2023-11-22T04:14:47;11.40;96.70
52024;DHT22;38038;45.922;13.604;2023-11-22T04:17:12;11.20;96.70
52024;DHT22;38038;45.922;13.604;2023-11-22T04:19:38;11.30;96.40
52024;DHT22;38038;45.922;13.604;2023-11-22T04:22:04;11.20;96.60
52024;DHT22;38038;45.922;13.604;2023-11-22T04:24:29;11.10;96.60
52024;DHT22;38038;45.922;13.604;2023-11-22T04:26:55;11.20;96.40
52024;DHT22;38038;45.922;13.604;2023-11-22T04:29:21;11.40;94.40
52024;DHT22;38038;45.922;13.604;2023-11-22T04:31:46;11.70;95.00
52024;DHT22;38038;45.922;13.604;2023-11-22T04:34:12;11.50;96.30
52024;DHT22;38038;45.922;13.604;2023-11-22T04:36:37;11.50;95.70
52024;DHT22;38038;45.922;13.604;2023-11-22T04:39:04;11.40;96.00
52024;DHT22;38038;45.922;13.604;2023-11-22T04:41:30;11.60;94.60
52024;DHT22;38038;45.922;13.604;2023-11-22T04:43:55;11.60;95.10
52024;DHT22;38038;45.922;13.604;2023-11-22T04:46:21;11.50;94.90
52024;DHT22;38038;45.922;13.604;2023-11-22T04:48:47;11.40;95.80
52024;DHT22;38038;45.922;13.604;2023-11-22T04:51:16;11.30;95.70
52024;DHT22;38038;45.922;13.604;2023-11-22T04:53:42;11.20;95.80
52024;DHT22;38038;45.922;13.604;2023-11-22T04:56:09;11.20;96.50
52024;DHT22;38038;45.922;13.604;2023-11-22T04:58:35;11.10;96.50
52024;DHT22;38038;45.922;13.604;2023-11-22T05:01:01;10.90;97.30
52024;DHT22;38038;45.922;13.604;2023-11-22T05:03:27;10.80;97.70
52024;DHT22;38038;45.922;13.604;2023-11-22T05:05:53;10.60;98.10
52024;DHT22;38038;45.922;13.604;2023-11-22T05:08:19;10.50;98.30
52024;DHT22;38038;45.922;13.604;2023-11-22T05:10:45;10.40;99.00
52024;DHT22;38038;45.922;13.604;2023-11-22T05:13:10;10.80;95.60
52024;DHT22;38038;45.922;13.604;2023-11-22T05:15:36;11.20;96.30
52024;DHT22;38038;45.922;13.604;2023-11-22T05:18:02;11.10;95.20
52024;DHT22;38038;45.922;13.604;2023-11-22T05:20:28;11.30;95.60
52024;DHT22;38038;45.922;13.604;2023-11-22T05:22:53;11.30;95.80
52024;DHT22;38038;45.922;13.604;2023-11-22T05:25:19;11.40;95.50
52024;DHT22;38038;45.922;13.604;2023-11-22T05:27:45;11.30;95.70
52024;DHT22;38038;45.922;13.604;2023-11-22T05:30:11;11.30;96.20
52024;DHT22;38038;45.922;13.604;2023-11-22T05:32:36;11.10;96.40
52024;DHT22;38038;45.922;13.604;2023-11-22T05:35:02;10.90;97.10
52024;DHT22;38038;45.922;13.604;2023-11-22T05:37:29;10.90;96.90
52024;DHT22;38038;45.922;13.604;2023-11-22T05:39:55;11.20;96.00
52024;DHT22;38038;45.922;13.604;2023-11-22T05:42:21;11.10;97.20
52024;DHT22;38038;45.922;13.604;2023-11-22T05:44:47;11.20;94.90
52024;DHT22;38038;45.922;13.604;2023-11-22T05:47:12;11.20;97.10
52024;DHT22;38038;45.922;13.604;2023-11-22T05:49:38;10.90;98.10
52024;DHT22;38038;45.922;13.604;2023-11-22T05:52:04;10.60;99.10
52024;DHT22;38038;45.922;13.604;2023-11-22T05:54:30;10.50;97.30
52024;DHT22;38038;45.922;13.604;2023-11-22T05:56:57;10.80;96.40
52024;DHT22;38038;45.922;13.604;2023-11-22T05:59:22;11.20;94.60
52024;DHT22;38038;45.922;13.604;2023-11-22T06:01:49;11.30;95.40
52024;DHT22;38038;45.922;13.604;2023-11-22T06:04:15;11.80;93.70
52024;DHT22;38038;45.922;13.604;2023-11-22T06:06:40;11.70;95.70
52024;DHT22;38038;45.922;13.604;2023-11-22T06:09:06;11.00;97.40
52024;DHT22;38038;45.922;13.604;2023-11-22T06:11:32;11.00;96.50
52024;DHT22;38038;45.922;13.604;2023-11-22T06:13:59;11.00;96.90
52024;DHT22;38038;45.922;13.604;2023-11-22T06:16:25;11.30;94.80
52024;DHT22;38038;45.922;13.604;2023-11-22T06:18:50;11.60;95.60
52024;DHT22;38038;45.922;13.604;2023-11-22T06:21:16;11.30;97.20
52024;DHT22;38038;45.922;13.604;2023-11-22T06:23:42;11.10;96.80
52024;DHT22;38038;45.922;13.604;2023-11-22T06:26:07;11.40;95.50
52024;DHT22;38038;45.922;13.604;2023-11-22T06:28:33;11.30;97.20
52024;DHT22;38038;45.922;13.604;2023-11-22T06:31:00;11.00;97.40
52024;DHT22;38038;45.922;13.604;2023-11-22T06:33:26;10.90;98.20
52024;DHT22;38038;45.922;13.604;2023-11-22T06:35:51;10.70;98.90
52024;DHT22;38038;45.922;13.604;2023-11-22T06:38:17;10.70;98.50
52024;DHT22;38038;45.922;13.604;2023-11-22T06:40:43;10.60;98.10
52024;DHT22;38038;45.922;13.604;2023-11-22T06:43:09;10.80;97.90
52024;DHT22;38038;45.922;13.604;2023-11-22T06:45:35;10.80;97.50
52024;DHT22;38038;45.922;13.604;2023-11-22T06:48:00;10.80;97.80
52024;DHT22;38038;45.922;13.604;2023-11-22T06:50:26;10.90;97.70
52024;DHT22;38038;45.922;13.604;2023-11-22T06:52:52;10.90;97.20
52024;DHT22;38038;45.922;13.604;2023-11-22T06:55:18;10.90;97.80
52024;DHT22;38038;45.922;13.604;2023-11-22T06:57:44;10.80;98.50
52024;DHT22;38038;45.922;13.604;2023-11-22T07:00:10;10.80;97.80
52024;DHT22;38038;45.922;13.604;2023-11-22T07:02:38;10.90;98.00
52024;DHT22;38038;45.922;13.604;2023-11-22T07:05:04;11.00;96.70
52024;DHT22;38038;45.922;13.604;2023-11-22T07:07:39;11.30;96.10
52024;DHT22;38038;45.922;13.604;2023-11-22T07:10:06;11.30;96.40
52024;DHT22;38038;45.922;13.604;2023-11-22T07:12:33;11.20;97.00
52024;DHT22;38038;45.922;13.604;2023-11-22T07:15:00;11.10;97.10
52024;DHT22;38038;45.922;13.604;2023-11-22T07:17:25;11.00;96.90
52024;DHT22;38038;45.922;13.604;2023-11-22T07:19:54;11.00;96.90
52024;DHT22;38038;45.922;13.604;2023-11-22T07:22:20;11.20;96.30
52024;DHT22;38038;45.922;13.604;2023-11-22T07:24:48;11.30;96.10
52024;DHT22;38038;45.922;13.604;2023-11-22T07:27:17;11.40;95.80
52024;DHT22;38038;45.922;13.604;2023-11-22T07:29:44;11.70;94.30
52024;DHT22;38038;45.922;13.604;2023-11-22T07:32:10;12.20;93.50
52024;DHT22;38038;45.922;13.604;2023-11-22T07:34:37;12.10;93.70
52024;DHT22;38038;45.922;13.604;2023-11-22T07:37:04;12.10;93.60
52024;DHT22;38038;45.922;13.604;2023-11-22T07:39:32;12.20;94.30
52024;DHT22;38038;45.922;13.604;2023-11-22T07:41:58;12.20;93.60
52024;DHT22;38038;45.922;13.604;2023-11-22T07:44:24;12.10;93.70
52024;DHT22;38038;45.922;13.604;2023-11-22T07:46:50;12.00;94.50
52024;DHT22;38038;45.922;13.604;2023-11-22T07:49:20;11.90;94.40
52024;DHT22;38038;45.922;13.604;2023-11-22T07:51:47;11.70;95.90
52024;DHT22;38038;45.922;13.604;2023-11-22T07:54:12;11.60;96.70
52024;DHT22;38038;45.922;13.604;2023-11-22T07:56:43;11.50;98.70
52024;DHT22;38038;45.922;13.604;2023-11-22T07:59:12;11.40;95.90
52024;DHT22;38038;45.922;13.604;2023-11-22T08:01:38;11.80;95.00
52024;DHT22;38038;45.922;13.604;2023-11-22T08:04:04;11.90;94.90
52024;DHT22;38038;45.922;13.604;2023-11-22T08:06:31;12.00;94.30
52024;DHT22;38038;45.922;13.604;2023-11-22T08:08:58;12.30;93.10
52024;DHT22;38038;45.922;13.604;2023-11-22T08:11:27;12.40;93.90
52024;DHT22;38038;45.922;13.604;2023-11-22T08:13:54;12.50;92.60
52024;DHT22;38038;45.922;13.604;2023-11-22T08:16:25;12.60;92.90
52024;DHT22;38038;45.922;13.604;2023-11-22T08:18:51;12.60;92.70
52024;DHT22;38038;45.922;13.604;2023-11-22T08:21:17;12.60;93.00
52024;DHT22;38038;45.922;13.604;2023-11-22T08:23:45;12.60;92.60
52024;DHT22;38038;45.922;13.604;2023-11-22T08:26:11;12.70;91.70
52024;DHT22;38038;45.922;13.604;2023-11-22T08:28:37;12.80;92.40
52024;DHT22;38038;45.922;13.604;2023-11-22T08:31:03;12.80;92.40
52024;DHT22;38038;45.922;13.604;2023-11-22T08:33:36;12.80;92.70
52024;DHT22;38038;45.922;13.604;2023-11-22T08:36:02;12.80;92.50
52024;DHT22;38038;45.922;13.604;2023-11-22T08:38:30;12.80;93.00
52024;DHT22;38038;45.922;13.604;2023-11-22T08:41:01;12.70;93.40
52024;DHT22;38038;45.922;13.604;2023-11-22T08:43:28;12.60;93.70
52024;DHT22;38038;45.922;13.604;2023-11-22T08:45:54;12.60;93.50
52024;DHT22;38038;45.922;13.604;2023-11-22T08:48:19;12.70;93.40
52024;DHT22;38038;45.922;13.604;2023-11-22T08:50:45;12.80;92.50
52024;DHT22;38038;45.922;13.604;2023-11-22T08:53:13;12.90;93.50
52024;DHT22;38038;45.922;13.604;2023-11-22T08:55:39;12.70;95.70
52024;DHT22;38038;45.922;13.604;2023-11-22T08:58:04;12.70;94.00
52024;DHT22;38038;45.922;13.604;2023-11-22T09:00:31;12.90;93.20
52024;DHT22;38038;45.922;13.604;2023-11-22T09:02:58;13.00;92.50
52024;DHT22;38038;45.922;13.604;2023-11-22T09:05:23;13.10;93.60
52024;DHT22;38038;45.922;13.604;2023-11-22T09:07:50;13.10;94.30
52024;DHT22;38038;45.922;13.604;2023-11-22T09:10:16;13.00;94.00
52024;DHT22;38038;45.922;13.604;2023-11-22T09:12:44;13.10;93.00
52024;DHT22;38038;45.922;13.604;2023-11-22T09:15:11;13.30;92.20
52024;DHT22;38038;45.922;13.604;2023-11-22T09:17:38;13.50;92.60
52024;DHT22;38038;45.922;13.604;2023-11-22T09:20:17;13.50;94.40
52024;DHT22;38038;45.922;13.604;2023-11-22T09:22:49;13.50;92.50
52024;DHT22;38038;45.922;13.604;2023-11-22T09:27:50;13.50;92.60
52024;DHT22;38038;45.922;13.604;2023-11-22T09:30:29;13.50;93.60
52024;DHT22;38038;45.922;13.604;2023-11-22T09:33:05;13.60;92.70
52024;DHT22;38038;45.922;13.604;2023-11-22T09:35:32;13.70;92.60
52024;DHT22;38038;45.922;13.604;2023-11-22T09:38:02;13.70;92.00
52024;DHT22;38038;45.922;13.604;2023-11-22T09:40:28;13.70;91.70
52024;DHT22;38038;45.922;13.604;2023-11-22T09:42:55;13.60;92.40
52024;DHT22;38038;45.922;13.604;2023-11-22T09:45:21;13.60;92.80
52024;DHT22;38038;45.922;13.604;2023-11-22T09:47:47;13.70;92.90
52024;DHT22;38038;45.922;13.604;2023-11-22T09:53:02;13.80;91.40
52024;DHT22;38038;45.922;13.604;2023-11-22T09:55:30;13.80;92.00
52024;DHT22;38038;45.922;13.604;2023-11-22T09:57:59;13.90;91.20
52024;DHT22;38038;45.922;13.604;2023-11-22T10:00:29;13.90;92.20
52024;DHT22;38038;45.922;13.604;2023-11-22T10:02:58;13.80;93.60
52024;DHT22;38038;45.922;13.604;2023-11-22T10:05:24;13.90;92.10
52024;DHT22;38038;45.922;13.604;2023-11-22T10:07:50;13.90;90.50
52024;DHT22;38038;45.922;13.604;2023-11-22T10:10:19;14.00;91.60
52024;DHT22;38038;45.922;13.604;2023-11-22T10:12:47;14.10;91.40
52024;DHT22;38038;45.922;13.604;2023-11-22T10:15:17;14.10;91.90
52024;DHT22;38038;45.922;13.604;2023-11-22T10:18:10;13.90;90.80
52024;DHT22;38038;45.922;13.604;2023-11-22T10:20:37;13.90;91.30
52024;DHT22;38038;45.922;13.604;2023-11-22T10:23:11;13.90;91.30
52024;DHT22;38038;45.922;13.604;2023-11-22T10:25:44;13.90;91.30
52024;DHT22;38038;45.922;13.604;2023-11-22T10:28:10;13.90;93.00
52024;DHT22;38038;45.922;13.604;2023-11-22T10:30:36;13.90;92.10
52024;DHT22;38038;45.922;13.604;2023-11-22T10:33:02;13.90;90.80
52024;DHT22;38038;45.922;13.604;2023-11-22T10:35:29;14.00;91.80
52024;DHT22;38038;45.922;13.604;2023-11-22T10:37:55;14.10;90.70
52024;DHT22;38038;45.922;13.604;2023-11-22T10:40:20;14.00;90.90
52024;DHT22;38038;45.922;13.604;2023-11-22T10:42:48;13.90;91.10
52024;DHT22;38038;45.922;13.604;2023-11-22T10:45:17;13.80;91.30
52024;DHT22;38038;45.922;13.604;2023-11-22T10:47:44;13.80;91.30
52024;DHT22;38038;45.922;13.604;2023-11-22T10:50:26;13.80;91.60
52024;DHT22;38038;45.922;13.604;2023-11-22T10:52:57;13.90;91.90
52024;DHT22;38038;45.922;13.604;2023-11-22T10:55:27;14.00;91.10
52024;DHT22;38038;45.922;13.604;2023-11-22T10:57:55;14.00;91.60
52024;DHT22;38038;45.922;13.604;2023-11-22T11:00:22;14.10;90.70
52024;DHT22;38038;45.922;13.604;2023-11-22T11:03:03;14.00;91.60
52024;DHT22;38038;45.922;13.604;2023-11-22T11:05:33;14.10;91.30
52024;DHT22;38038;45.922;13.604;2023-11-22T11:08:08;14.20;92.60
52024;DHT22;38038;45.922;13.604;2023-11-22T11:10:42;14.10;91.80
52024;DHT22;38038;45.922;13.604;2023-11-22T11:13:11;14.20;91.30
52024;DHT22;38038;45.922;13.604;2023-11-22T11:15:41;14.30;91.30
52024;DHT22;38038;45.922;13.604;2023-11-22T11:18:14;14.30;91.60
52024;DHT22;38038;45.922;13.604;2023-11-22T11:20:57;14.30;93.00
52024;DHT22;38038;45.922;13.604;2023-11-22T11:23:26;14.20;91.30
52024;DHT22;38038;45.922;13.604;2023-11-22T11:25:55;14.20;91.40
52024;DHT22;38038;45.922;13.604;2023-11-22T11:28:25;14.10;91.10
52024;DHT22;38038;45.922;13.604;2023-11-22T11:30:54;14.00;91.40
52024;DHT22;38038;45.922;13.604;2023-11-22T11:33:27;13.90;92.10
52024;DHT22;38038;45.922;13.604;2023-11-22T11:35:57;14.00;91.10
52024;DHT22;38038;45.922;13.604;2023-11-22T11:38:31;14.00;91.50
52024;DHT22;38038;45.922;13.604;2023-11-22T11:41:00;14.00;91.40
52024;DHT22;38038;45.922;13.604;2023-11-22T11:43:42;14.00;91.20
52024;DHT22;38038;45.922;13.604;2023-11-22T11:46:09;13.90;90.90
52024;DHT22;38038;45.922;13.604;2023-11-22T11:48:35;13.90;91.40
52024;DHT22;38038;45.922;13.604;2023-11-22T11:51:01;13.90;91.30
52024;DHT22;38038;45.922;13.604;2023-11-22T11:53:27;13.90;91.20
52024;DHT22;38038;45.922;13.604;2023-11-22T11:55:54;13.90;91.90
52024;DHT22;38038;45.922;13.604;2023-11-22T11:58:20;13.90;91.80
52024;DHT22;38038;45.922;13.604;2023-11-22T12:00:45;14.00;91.80
52024;DHT22;38038;45.922;13.604;2023-11-22T12:03:11;14.00;92.00
52024;DHT22;38038;45.922;13.604;2023-11-22T12:05:38;14.10;91.40
52024;DHT22;38038;45.922;13.604;2023-11-22T12:08:04;14.00;90.60
52024;DHT22;38038;45.922;13.604;2023-11-22T12:10:30;14.00;90.90
52024;DHT22;38038;45.922;13.604;2023-11-22T12:12:56;14.00;91.40
52024;DHT22;38038;45.922;13.604;2023-11-22T12:15:22;14.00;91.40
52024;DHT22;38038;45.922;13.604;2023-11-22T12:17:48;14.10;91.20
52024;DHT22;38038;45.922;13.604;2023-11-22T12:20:16;14.20;91.50
52024;DHT22;38038;45.922;13.604;2023-11-22T12:22:47;14.20;91.30
52024;DHT22;38038;45.922;13.604;2023-11-22T12:25:14;14.30;91.20
52024;DHT22;38038;45.922;13.604;2023-11-22T12:27:43;14.20;92.20
52024;DHT22;38038;45.922;13.604;2023-11-22T12:30:48;14.00;93.00
52024;DHT22;38038;45.922;13.604;2023-11-22T12:33:14;13.90;92.80
52024;DHT22;38038;45.922;13.604;2023-11-22T12:35:43;13.90;92.70
52024;DHT22;38038;45.922;13.604;2023-11-22T12:38:10;13.70;93.40
52024;DHT22;38038;45.922;13.604;2023-11-22T12:40:36;13.80;93.90
52024;DHT22;38038;45.922;13.604;2023-11-22T12:43:02;13.70;94.30
52024;DHT22;38038;45.922;13.604;2023-11-22T12:45:30;13.70;93.40
52024;DHT22;38038;45.922;13.604;2023-11-22T12:47:59;13.70;94.00
52024;DHT22;38038;45.922;13.604;2023-11-22T12:50:38;13.60;94.00
52024;DHT22;38038;45.922;13.604;2023-11-22T12:53:11;13.60;94.20
52024;DHT22;38038;45.922;13.604;2023-11-22T12:55:44;13.60;93.30
52024;DHT22;38038;45.922;13.604;2023-11-22T12:58:11;13.70;93.10
52024;DHT22;38038;45.922;13.604;2023-11-22T13:00:38;13.80;92.40
52024;DHT22;38038;45.922;13.604;2023-11-22T13:03:08;13.90;92.30
52024;DHT22;38038;45.922;13.604;2023-11-22T13:05:37;14.10;91.00
52024;DHT22;38038;45.922;13.604;2023-11-22T13:08:04;14.20;90.90
52024;DHT22;38038;45.922;13.604;2023-11-22T13:10:30;14.30;90.60
52024;DHT22;38038;45.922;13.604;2023-11-22T13:12:56;14.40;90.20
52024;DHT22;38038;45.922;13.604;2023-11-22T13:15:22;14.40;89.80
52024;DHT22;38038;45.922;13.604;2023-11-22T13:17:54;14.40;90.20
52024;DHT22;38038;45.922;13.604;2023-11-22T13:20:27;14.40;90.70
52024;DHT22;38038;45.922;13.604;2023-11-22T13:22:54;14.40;90.60
52024;DHT22;38038;45.922;13.604;2023-11-22T13:25:20;14.30;90.10
52024;DHT22;38038;45.922;13.604;2023-11-22T13:27:52;14.30;90.60
52024;DHT22;38038;45.922;13.604;2023-11-22T13:30:20;14.20;90.30
52024;DHT22;38038;45.922;13.604;2023-11-22T13:32:49;14.30;90.60
52024;DHT22;38038;45.922;13.604;2023-11-22T13:35:15;14.20;90.60
52024;DHT22;38038;45.922;13.604;2023-11-22T13:37:46;14.20;90.10
52024;DHT22;38038;45.922;13.604;2023-11-22T13:40:15;14.20;90.30
52024;DHT22;38038;45.922;13.604;2023-11-22T13:42:44;14.20;90.50
52024;DHT22;38038;45.922;13.604;2023-11-22T13:45:12;14.30;89.10
52024;DHT22;38038;45.922;13.604;2023-11-22T13:47:46;14.30;90.10
52024;DHT22;38038;45.922;13.604;2023-11-22T13:50:13;14.30;90.70
52024;DHT22;38038;45.922;13.604;2023-11-22T13:52:40;14.10;91.50
52024;DHT22;38038;45.922;13.604;2023-11-22T13:55:07;14.00;91.50
52024;DHT22;38038;45.922;13.604;2023-11-22T13:57:38;14.00;91.80
52024;DHT22;38038;45.922;13.604;2023-11-22T14:00:05;13.90;90.60
52024;DHT22;38038;45.922;13.604;2023-11-22T14:02:35;13.90;92.20
52024;DHT22;38038;45.922;13.604;2023-11-22T14:05:02;13.90;92.00
52024;DHT22;38038;45.922;13.604;2023-11-22T14:07:28;13.90;90.40
52024;DHT22;38038;45.922;13.604;2023-11-22T14:09:54;14.00;90.60
52024;DHT22;38038;45.922;13.604;2023-11-22T14:12:20;14.20;89.50
52024;DHT22;38038;45.922;13.604;2023-11-22T14:14:46;14.20;89.20
52024;DHT22;38038;45.922;13.604;2023-11-22T14:17:12;14.20;90.10
52024;DHT22;38038;45.922;13.604;2023-11-22T14:19:39;14.10;89.00
52024;DHT22;38038;45.922;13.604;2023-11-22T14:22:05;14.10;90.20
52024;DHT22;38038;45.922;13.604;2023-11-22T14:24:33;13.90;91.90
52024;DHT22;38038;45.922;13.604;2023-11-22T14:27:18;13.50;93.20
52024;DHT22;38038;45.922;13.604;2023-11-22T14:29:45;13.20;93.60
52024;DHT22;38038;45.922;13.604;2023-11-22T14:32:14;12.90;94.00
52024;DHT22;38038;45.922;13.604;2023-11-22T14:34:40;12.90;93.80
52024;DHT22;38038;45.922;13.604;2023-11-22T14:37:09;12.90;93.50
52024;DHT22;38038;45.922;13.604;2023-11-22T14:39:35;12.90;93.50
52024;DHT22;38038;45.922;13.604;2023-11-22T14:42:01;12.90;93.80
52024;DHT22;38038;45.922;13.604;2023-11-22T14:44:27;12.80;94.20
52024;DHT22;38038;45.922;13.604;2023-11-22T14:46:53;12.70;94.20
52024;DHT22;38038;45.922;13.604;2023-11-22T14:49:19;12.70;94.70
52024;DHT22;38038;45.922;13.604;2023-11-22T14:51:46;12.70;94.30
52024;DHT22;38038;45.922;13.604;2023-11-22T14:54:12;12.60;94.70
52024;DHT22;38038;45.922;13.604;2023-11-22T14:56:38;12.50;95.50
52024;DHT22;38038;45.922;13.604;2023-11-22T14:59:05;12.40;95.40
52024;DHT22;38038;45.922;13.604;2023-11-22T15:01:31;12.30;95.80
52024;DHT22;38038;45.922;13.604;2023-11-22T15:03:57;12.40;95.70
52024;DHT22;38038;45.922;13.604;2023-11-22T15:06:23;12.30;95.10
52024;DHT22;38038;45.922;13.604;2023-11-22T15:08:48;12.20;95.50
52024;DHT22;38038;45.922;13.604;2023-11-22T15:11:15;12.20;95.50
52024;DHT22;38038;45.922;13.604;2023-11-22T15:13:44;12.00;96.10
52024;DHT22;38038;45.922;13.604;2023-11-22T15:16:10;12.00;96.20
52024;DHT22;38038;45.922;13.604;2023-11-22T15:18:41;11.90;96.50
52024;DHT22;38038;45.922;13.604;2023-11-22T15:21:07;11.80;97.20
52024;DHT22;38038;45.922;13.604;2023-11-22T15:23:33;11.80;96.70